createdAt,value
2022-07-29T00:00:14.685Z,82.30
2022-07-29T00:02:41.787Z,82.04
2022-07-29T00:05:09.683Z,81.93
2022-07-29T00:07:36.717Z,81.52
2022-07-29T00:10:04.945Z,81.32
2022-07-29T00:12:31.864Z,81.01
2022-07-29T00:14:59.147Z,81.01
2022-07-29T00:17:26.502Z,81.08
2022-07-29T00:19:54.223Z,81.16
2022-07-29T00:22:21.688Z,80.72
2022-07-29T00:24:50.172Z,80.03
2022-07-29T00:27:18.407Z,80.17
2022-07-29T00:29:45.741Z,80.36
2022-07-29T00:32:12.883Z,80.16
2022-07-29T00:34:58.713Z,80.27
2022-07-29T00:37:25.951Z,80.38
2022-07-29T00:39:52.876Z,80.40
2022-07-29T00:42:19.797Z,80.24
2022-07-29T00:44:46.695Z,80.33
2022-07-29T00:47:13.809Z,80.27
2022-07-29T00:49:42.175Z,79.88
2022-07-29T00:52:11.277Z,79.76
2022-07-29T00:54:44.019Z,79.83
2022-07-29T00:57:13.279Z,78.93
2022-07-29T00:59:40.276Z,78.83
2022-07-29T01:02:07.470Z,78.96
2022-07-29T01:04:34.900Z,79.40
2022-07-29T01:07:05.598Z,79.80
2022-07-29T01:09:45.789Z,79.32
2022-07-29T01:12:20.255Z,79.28
2022-07-29T01:14:49.310Z,79.32
2022-07-29T01:17:27.225Z,79.28
2022-07-29T01:20:24.951Z,79.85
2022-07-29T01:23:08.210Z,79.81
2022-07-29T01:25:59.560Z,79.71
2022-07-29T01:28:47.837Z,80.09
2022-07-29T01:31:25.071Z,80.22
2022-07-29T01:34:00.392Z,79.86
2022-07-29T01:36:38.480Z,79.41
2022-07-29T01:39:27.132Z,79.40
2022-07-29T01:41:59.488Z,79.47
2022-07-29T01:44:54.943Z,80.10
2022-07-29T01:47:25.195Z,80.23
2022-07-29T01:49:55.860Z,80.32
2022-07-29T01:52:37.619Z,80.49
2022-07-29T01:55:10.771Z,80.09
2022-07-29T01:57:41.588Z,80.41
2022-07-29T02:00:09.641Z,80.28
2022-07-29T02:02:43.657Z,80.50
2022-07-29T02:05:13.790Z,80.93
2022-07-29T02:07:43.165Z,81.22
2022-07-29T02:10:12.956Z,80.89
2022-07-29T02:12:43.400Z,81.28
2022-07-29T02:15:17.913Z,81.36
2022-07-29T02:17:57.452Z,81.26
2022-07-29T02:20:26.569Z,81.61
2022-07-29T02:22:55.688Z,81.72
2022-07-29T02:25:25.549Z,81.79
2022-07-29T02:28:06.540Z,81.32
2022-07-29T02:30:34.953Z,81.53
2022-07-29T02:33:02.879Z,81.46
2022-07-29T02:35:34.697Z,81.29
2022-07-29T02:38:22.967Z,81.23
2022-07-29T02:40:53.033Z,81.40
2022-07-29T02:43:22.250Z,81.50
2022-07-29T02:45:54.253Z,81.46
2022-07-29T02:48:25.834Z,81.38
2022-07-29T02:51:00.738Z,81.41
2022-07-29T03:13:00.092Z,83.79
2022-07-29T03:15:28.018Z,83.12
2022-07-29T03:17:58.454Z,82.53
2022-07-29T03:20:25.737Z,82.04
2022-07-29T03:22:52.753Z,81.92
2022-07-29T03:25:21.210Z,81.45
2022-07-29T03:27:49.027Z,81.57
2022-07-29T03:30:20.374Z,81.38
2022-07-29T03:32:49.521Z,81.02
2022-07-29T03:35:23.781Z,81.42
2022-07-29T03:37:50.679Z,81.03
2022-07-29T03:40:23.814Z,80.66
2022-07-29T03:42:52.633Z,80.58
2022-07-29T03:45:20.759Z,80.12
2022-07-29T03:47:55.819Z,80.19
2022-07-29T03:50:26.363Z,79.13
2022-07-29T03:52:53.786Z,78.41
2022-07-29T03:55:20.942Z,78.37
2022-07-29T03:57:49.195Z,77.32
2022-07-29T04:00:17.021Z,76.17
2022-07-29T04:02:49.784Z,74.46
2022-07-29T04:05:17.754Z,73.34
2022-07-29T04:07:48.728Z,71.76
2022-07-29T04:10:17.939Z,70.28
2022-07-29T04:12:57.218Z,70.07
2022-07-29T04:15:24.134Z,68.84
2022-07-29T04:17:51.560Z,67.48
2022-07-29T04:20:18.579Z,65.13
2022-07-29T04:22:45.494Z,62.70
2022-07-29T04:25:12.403Z,61.83
2022-07-29T04:27:59.203Z,61.07
2022-07-29T04:30:26.096Z,60.23
2022-07-29T04:32:53.177Z,59.40
2022-07-29T04:35:20.951Z,58.20
2022-07-29T04:37:47.855Z,60.38
2022-07-29T04:40:14.764Z,60.24
2022-07-29T04:42:46.212Z,60.88
2022-07-29T04:45:14.193Z,59.45
2022-07-29T04:47:41.324Z,58.46
2022-07-29T04:50:09.743Z,56.94
2022-07-29T04:52:36.712Z,55.55
2022-07-29T04:55:05.489Z,55.45
2022-07-29T04:57:32.642Z,54.11
2022-07-29T04:59:59.594Z,51.93
2022-07-29T05:02:26.612Z,52.05
2022-07-29T05:04:53.483Z,51.94
2022-07-29T05:07:20.999Z,52.42
2022-07-29T05:09:48.546Z,52.27
2022-07-29T05:12:15.811Z,54.00
2022-07-29T05:14:42.679Z,53.40
2022-07-29T05:17:09.670Z,53.77
2022-07-29T05:19:39.604Z,50.75
2022-07-29T05:22:07.059Z,49.13
2022-07-29T05:24:33.965Z,47.63
2022-07-29T05:27:01.033Z,45.24
2022-07-29T05:29:43.312Z,46.82
2022-07-29T05:32:13.587Z,45.89
2022-07-29T05:34:50.460Z,44.73
2022-07-29T05:37:20.555Z,44.34
2022-07-29T05:39:50.876Z,46.30
2022-07-29T05:42:24.641Z,46.99
2022-07-29T05:44:51.972Z,45.89
2022-07-29T05:47:19.063Z,45.91
2022-07-29T05:49:46.427Z,43.82
2022-07-29T05:52:14.302Z,43.41
2022-07-29T05:54:41.693Z,45.21
2022-07-29T05:57:08.691Z,45.98
2022-07-29T05:59:39.079Z,43.77
2022-07-29T06:02:08.717Z,43.40
2022-07-29T06:04:35.688Z,39.23
2022-07-29T06:07:03.013Z,39.32
2022-07-29T06:09:30.421Z,38.02
2022-07-29T06:11:58.405Z,39.30
2022-07-29T06:14:26.151Z,37.23
2022-07-29T06:16:54.144Z,37.10
2022-07-29T06:19:21.116Z,36.74
2022-07-29T06:21:48.997Z,34.42
2022-07-29T06:24:17.307Z,32.92
2022-07-29T06:26:44.505Z,33.46
2022-07-29T06:29:12.530Z,35.64
2022-07-29T06:31:40.482Z,35.10
2022-07-29T06:34:07.727Z,34.31
2022-07-29T06:36:39.690Z,33.76
2022-07-29T06:39:08.922Z,34.97
2022-07-29T06:41:36.608Z,35.25
2022-07-29T06:44:10.235Z,35.94
2022-07-29T06:46:37.587Z,34.76
2022-07-29T06:49:05.182Z,36.16
2022-07-29T06:51:32.171Z,35.78
2022-07-29T06:54:02.834Z,33.61
2022-07-29T06:56:42.669Z,33.83
2022-07-29T06:59:11.344Z,33.24
2022-07-29T07:01:42.046Z,33.37
2022-07-29T07:04:10.046Z,34.23
2022-07-29T07:06:37.798Z,34.74
2022-07-29T07:09:04.889Z,35.73
2022-07-29T07:11:31.933Z,34.67
2022-07-29T07:14:02.937Z,33.72
2022-07-29T07:16:32.230Z,31.62
2022-07-29T07:18:59.285Z,32.27
2022-07-29T07:21:26.347Z,33.02
2022-07-29T07:23:57.317Z,33.31
2022-07-29T07:26:24.278Z,33.22
2022-07-29T07:28:51.263Z,32.29
2022-07-29T07:31:18.657Z,33.18
2022-07-29T07:33:45.854Z,32.06
2022-07-29T07:36:12.907Z,31.30
2022-07-29T07:38:39.886Z,30.05
2022-07-29T07:41:06.848Z,30.05
2022-07-29T07:43:33.782Z,31.07
2022-07-29T07:46:00.787Z,30.05
2022-07-29T07:48:27.918Z,30.08
2022-07-29T07:50:55.513Z,29.67
2022-07-29T07:53:22.968Z,31.25
2022-07-29T07:58:37.331Z,31.86
2022-07-29T08:01:04.522Z,30.65
2022-07-29T08:03:31.551Z,32.59
2022-07-29T08:05:58.632Z,33.37
2022-07-29T08:08:25.630Z,33.25
2022-07-29T08:10:56.877Z,33.37
2022-07-29T08:13:31.242Z,32.27
2022-07-29T08:15:59.203Z,30.18
2022-07-29T08:18:30.637Z,30.78
2022-07-29T08:20:58.538Z,29.91
2022-07-29T08:23:25.601Z,29.61
2022-07-29T08:25:52.558Z,29.13
2022-07-29T08:28:25.837Z,28.54
2022-07-29T08:30:53.419Z,28.46
2022-07-29T08:33:20.266Z,30.75
2022-07-29T08:35:47.374Z,29.59
2022-07-29T08:38:14.396Z,29.79
2022-07-29T08:40:41.499Z,28.31
2022-07-29T08:43:09.472Z,29.00
2022-07-29T08:45:51.001Z,28.23
2022-07-29T08:48:23.188Z,28.12
2022-07-29T08:50:55.859Z,26.07
2022-07-29T08:53:25.871Z,27.19
2022-07-29T08:55:54.306Z,27.92
2022-07-29T08:58:23.274Z,27.91
2022-07-29T09:00:57.942Z,27.66
2022-07-29T09:03:28.533Z,27.35
2022-07-29T09:05:56.006Z,27.54
2022-07-29T09:08:24.335Z,27.98
2022-07-29T09:10:52.358Z,28.04
2022-07-29T09:13:19.286Z,27.09
2022-07-29T09:15:46.463Z,27.65
2022-07-29T09:18:19.471Z,28.93
2022-07-29T09:21:16.492Z,30.61
2022-07-29T09:24:00.451Z,30.69
2022-07-29T09:26:31.893Z,29.76
2022-07-29T09:29:00.214Z,30.70
2022-07-29T09:31:38.032Z,29.85
2022-07-29T09:34:07.069Z,31.60
2022-07-29T09:36:44.247Z,33.39
2022-07-29T09:39:11.393Z,33.71
2022-07-29T09:41:51.187Z,34.67
2022-07-29T09:44:18.269Z,35.00
2022-07-29T09:47:08.295Z,35.12
2022-07-29T09:49:37.685Z,35.07
2022-07-29T09:52:08.256Z,31.52
2022-07-29T09:54:37.959Z,30.64
2022-07-29T09:57:07.014Z,32.66
2022-07-29T09:59:34.579Z,29.14
2022-07-29T10:02:01.710Z,29.84
2022-07-29T10:04:40.193Z,30.39
2022-07-29T10:07:07.399Z,30.88
2022-07-29T10:09:35.418Z,31.51
2022-07-29T10:12:14.485Z,30.93
2022-07-29T10:14:43.128Z,32.30
2022-07-29T10:17:11.503Z,32.57
2022-07-29T10:19:39.991Z,32.65
2022-07-29T10:22:10.965Z,34.07
2022-07-29T10:24:39.768Z,33.01
2022-07-29T10:27:09.119Z,33.73
2022-07-29T10:29:37.194Z,34.63
2022-07-29T10:32:37.003Z,32.49
2022-07-29T10:35:40.306Z,33.75
2022-07-29T10:38:38.604Z,31.25
2022-07-29T10:41:27.571Z,32.36
2022-07-29T10:44:17.360Z,32.87
2022-07-29T10:46:47.013Z,35.61
2022-07-29T10:49:25.078Z,36.59
2022-07-29T10:52:01.140Z,32.84
2022-07-29T10:54:37.418Z,34.65
2022-07-29T10:57:20.725Z,34.07
2022-07-29T11:00:12.404Z,32.76
2022-07-29T11:02:45.580Z,33.63
2022-07-29T11:05:18.906Z,31.55
2022-07-29T11:08:20.534Z,31.78
2022-07-29T11:10:53.619Z,33.14
2022-07-29T11:13:51.386Z,32.14
2022-07-29T11:16:25.279Z,31.77
2022-07-29T11:19:11.471Z,35.05
2022-07-29T11:22:05.177Z,33.39
2022-07-29T11:24:32.184Z,32.17
2022-07-29T11:27:22.016Z,31.08
2022-07-29T11:29:55.936Z,34.56
2022-07-29T11:32:29.213Z,37.65
2022-07-29T11:35:17.784Z,38.82
2022-07-29T11:37:52.698Z,41.65
2022-07-29T11:40:25.001Z,43.60
2022-07-29T11:42:53.006Z,46.17
2022-07-29T11:45:43.403Z,45.44
2022-07-29T11:48:28.462Z,46.89
2022-07-29T11:50:58.621Z,47.88
2022-07-29T11:53:29.099Z,47.89
2022-07-29T11:56:00.353Z,47.85
2022-07-29T11:58:28.642Z,48.64
2022-07-29T12:00:56.563Z,49.49
2022-07-29T12:03:35.043Z,48.31
2022-07-29T12:06:18.350Z,49.28
2022-07-29T12:08:48.122Z,48.60
2022-07-29T12:11:23.089Z,49.91
2022-07-29T12:13:54.405Z,49.99
2022-07-29T12:16:28.077Z,52.41
2022-07-29T12:19:04.818Z,50.27
2022-07-29T12:21:52.278Z,51.94
2022-07-29T12:24:27.065Z,52.54
2022-07-29T12:26:59.150Z,52.98
2022-07-29T12:29:34.797Z,51.27
2022-07-29T12:32:05.448Z,49.81
2022-07-29T12:34:33.506Z,51.06
2022-07-29T12:37:01.973Z,50.20
2022-07-29T12:39:29.332Z,48.67
2022-07-29T12:42:04.568Z,47.18
2022-07-29T12:45:04.870Z,50.15
2022-07-29T12:47:32.042Z,47.96
2022-07-29T12:50:09.622Z,50.80
2022-07-29T12:52:36.696Z,50.53
2022-07-29T12:55:04.824Z,49.63
2022-07-29T12:57:33.041Z,49.96
2022-07-29T13:00:09.207Z,49.74
2022-07-29T13:02:37.478Z,51.83
2022-07-29T13:05:06.013Z,52.74
2022-07-29T13:07:39.757Z,52.01
2022-07-29T13:10:24.252Z,53.38
2022-07-29T13:13:11.754Z,54.36
2022-07-29T13:15:41.119Z,58.49
2022-07-29T13:18:28.644Z,60.49
2022-07-29T13:20:56.162Z,56.96
2022-07-29T13:23:24.167Z,57.40
2022-07-29T13:25:51.320Z,57.49
2022-07-29T13:28:18.598Z,57.38
2022-07-29T13:30:45.658Z,56.43
2022-07-29T13:33:12.920Z,55.65
2022-07-29T13:35:40.324Z,56.22
2022-07-29T13:38:07.494Z,56.62
2022-07-29T13:40:36.394Z,55.06
2022-07-29T13:43:03.518Z,55.30
2022-07-29T13:45:30.994Z,54.94
2022-07-29T13:47:57.991Z,56.43
2022-07-29T13:50:24.999Z,57.41
2022-07-29T13:52:52.354Z,54.95
2022-07-29T13:55:19.989Z,57.89
2022-07-29T13:57:47.110Z,56.96
2022-07-29T14:00:14.876Z,57.20
2022-07-29T14:02:42.129Z,55.20
2022-07-29T14:05:10.883Z,55.42
2022-07-29T14:07:40.092Z,43.25
2022-07-29T14:10:08.108Z,52.21
2022-07-29T14:12:35.188Z,52.27
2022-07-29T14:15:02.217Z,47.82
2022-07-29T14:17:29.244Z,47.07
2022-07-29T14:19:56.349Z,49.62
2022-07-29T14:22:25.485Z,50.38
2022-07-29T14:24:52.764Z,52.32
2022-07-29T14:27:19.800Z,52.65
2022-07-29T14:30:05.552Z,52.69
2022-07-29T14:32:32.549Z,51.37
2022-07-29T14:34:59.532Z,52.30
2022-07-29T14:37:26.522Z,52.21
2022-07-29T14:39:55.026Z,52.02
2022-07-29T14:42:22.051Z,51.64
2022-07-29T14:44:50.359Z,52.21
2022-07-29T14:47:17.545Z,51.98
2022-07-29T14:49:44.474Z,51.94
2022-07-29T14:52:11.526Z,50.63
2022-07-29T14:54:39.191Z,51.48
2022-07-29T14:57:07.361Z,52.00
2022-07-29T15:14:56.302Z,58.02
2022-07-29T15:17:23.335Z,57.33
2022-07-29T15:19:50.471Z,57.33
2022-07-29T15:22:18.248Z,58.39
2022-07-29T15:24:45.488Z,58.55
2022-07-29T15:27:15.244Z,58.64
2022-07-29T15:29:43.381Z,57.62
2022-07-29T15:32:11.542Z,59.32
2022-07-29T15:34:39.320Z,60.25
2022-07-29T15:37:06.623Z,60.96
2022-07-29T15:39:34.068Z,60.95
2022-07-29T15:42:01.647Z,61.05
2022-07-29T15:44:28.799Z,62.59
2022-07-29T15:47:04.689Z,62.82
2022-07-29T15:49:48.700Z,63.55
2022-07-29T15:52:26.173Z,64.20
2022-07-29T15:54:57.809Z,64.07
2022-07-29T15:57:25.873Z,63.73
2022-07-29T15:59:53.156Z,64.78
2022-07-29T16:02:20.330Z,64.16
2022-07-29T16:04:47.618Z,64.60
2022-07-29T16:07:15.522Z,64.24
2022-07-29T16:09:43.577Z,64.66
2022-07-29T16:12:15.279Z,65.23
2022-07-29T16:14:45.841Z,65.05
2022-07-29T16:17:14.691Z,64.82
2022-07-29T16:19:43.528Z,64.62
2022-07-29T16:22:11.088Z,64.87
2022-07-29T16:24:39.039Z,63.33
2022-07-29T16:27:06.473Z,63.55
2022-07-29T16:29:33.721Z,61.24
2022-07-29T16:32:01.357Z,61.42
2022-07-29T16:34:28.632Z,61.43
2022-07-29T16:36:55.642Z,61.40
2022-07-29T16:39:22.608Z,60.81
2022-07-29T16:41:49.759Z,60.99
2022-07-29T16:44:16.779Z,62.12
2022-07-29T16:46:45.610Z,62.52
2022-07-29T16:49:19.049Z,62.91
2022-07-29T16:51:48.032Z,63.56
2022-07-29T16:54:15.546Z,63.90
2022-07-29T16:56:42.802Z,64.38
2022-07-29T16:59:09.809Z,64.81
2022-07-29T17:01:37.000Z,64.92
2022-07-29T17:04:07.324Z,65.23
2022-07-29T17:06:40.260Z,65.46
2022-07-29T17:09:10.025Z,65.75
2022-07-29T17:11:52.374Z,66.09
2022-07-29T17:14:25.227Z,67.16
2022-07-29T17:17:00.170Z,67.41
2022-07-29T17:19:30.731Z,68.04
2022-07-29T17:22:06.742Z,68.38
2022-07-29T17:24:38.108Z,68.78
2022-07-29T17:27:05.442Z,69.24
2022-07-29T17:29:32.390Z,69.35
2022-07-29T17:32:00.169Z,69.57
2022-07-29T17:34:27.458Z,69.72
2022-07-29T17:36:54.361Z,70.50
2022-07-29T17:39:21.860Z,70.77
2022-07-29T17:41:49.274Z,70.05
2022-07-29T17:44:16.258Z,70.52
2022-07-29T17:46:43.351Z,71.02
2022-07-29T17:49:10.681Z,70.99
2022-07-29T17:51:37.866Z,71.25
2022-07-29T17:54:04.987Z,71.73
2022-07-29T17:56:31.958Z,72.30
2022-07-29T17:59:01.592Z,73.20
2022-07-29T18:01:29.054Z,73.24
2022-07-29T18:03:59.775Z,73.49
2022-07-29T18:06:27.238Z,74.26
2022-07-29T18:08:55.508Z,74.30
2022-07-29T18:11:23.363Z,74.59
2022-07-29T18:13:50.318Z,75.42
2022-07-29T18:16:17.532Z,76.23
2022-07-29T18:18:45.466Z,76.49
2022-07-29T18:21:13.106Z,76.92
2022-07-29T18:23:40.293Z,77.52
2022-07-29T18:26:07.241Z,78.07
2022-07-29T18:28:34.327Z,78.50
2022-07-29T18:31:02.502Z,79.02
2022-07-29T18:33:29.614Z,79.68
2022-07-29T18:36:11.017Z,79.15
2022-07-29T18:38:42.002Z,79.52
2022-07-29T18:41:09.020Z,78.86
2022-07-29T18:43:36.414Z,78.75
2022-07-29T18:46:05.408Z,78.50
2022-07-29T18:48:34.273Z,78.42
2022-07-29T18:51:02.088Z,77.95
2022-07-29T18:53:36.972Z,78.41
2022-07-29T18:56:04.254Z,78.30
2022-07-29T18:58:33.110Z,78.35
2022-07-29T19:01:00.710Z,78.84
2022-07-29T19:03:27.654Z,78.65
2022-07-29T19:05:54.646Z,79.20
2022-07-29T19:08:21.547Z,79.13
2022-07-29T19:10:48.561Z,80.05
2022-07-29T19:13:15.528Z,80.14
2022-07-29T19:15:43.146Z,80.60
2022-07-29T19:18:10.074Z,81.21
2022-07-29T19:20:38.495Z,81.49
2022-07-29T19:23:05.875Z,81.46
2022-07-29T19:25:32.795Z,82.20
2022-07-29T19:28:03.123Z,82.79
2022-07-29T19:30:30.086Z,82.88
2022-07-29T19:32:57.106Z,82.91
2022-07-29T19:35:24.268Z,83.15
2022-07-29T19:37:52.449Z,83.73
2022-07-29T19:40:19.676Z,83.61
2022-07-29T19:42:48.332Z,84.04
2022-07-29T19:45:15.419Z,84.14
2022-07-29T19:47:42.491Z,83.65
2022-07-29T19:50:10.326Z,84.02
2022-07-29T19:52:37.702Z,84.57
2022-07-29T19:55:07.814Z,85.03
2022-07-29T19:57:40.754Z,85.65
2022-07-29T20:00:11.338Z,85.68
2022-07-29T20:02:40.384Z,85.97
2022-07-29T20:05:08.950Z,86.19
2022-07-29T20:07:36.707Z,85.99
2022-07-29T20:10:04.713Z,87.15
2022-07-29T20:12:31.857Z,87.07
2022-07-29T20:14:59.028Z,85.74
2022-07-29T20:17:26.063Z,86.30
2022-07-29T20:19:53.170Z,85.38
2022-07-29T20:22:21.554Z,84.21
2022-07-29T20:24:49.999Z,84.08
2022-07-29T20:27:17.201Z,83.12
2022-07-29T20:29:44.180Z,82.34
2022-07-29T20:32:12.603Z,81.98
2022-07-29T20:34:42.974Z,82.59
2022-07-29T20:37:11.425Z,81.97
2022-07-29T20:39:38.355Z,81.88
2022-07-29T20:42:06.003Z,82.61
2022-07-29T20:44:33.019Z,82.84
2022-07-29T20:47:00.152Z,83.40
2022-07-29T20:49:27.420Z,82.85
2022-07-29T20:51:54.490Z,83.54
2022-07-29T20:54:21.458Z,83.26
2022-07-29T20:56:48.399Z,83.46
2022-07-29T20:59:15.337Z,83.70
2022-07-29T21:01:42.501Z,83.66
2022-07-29T21:04:09.559Z,84.01
2022-07-29T21:06:36.714Z,83.64
2022-07-29T21:09:03.815Z,84.12
2022-07-29T21:11:43.265Z,84.58
2022-07-29T21:14:30.029Z,86.10
2022-07-29T21:16:57.198Z,86.34
2022-07-29T21:19:24.365Z,86.46
2022-07-29T21:21:51.354Z,86.70
2022-07-29T21:24:19.332Z,87.26
2022-07-29T21:26:54.429Z,88.07
2022-07-29T21:29:32.001Z,88.04
2022-07-29T21:31:58.938Z,88.21
2022-07-29T21:34:28.118Z,88.50
2022-07-29T21:36:55.222Z,88.12
2022-07-29T21:39:22.252Z,88.04
2022-07-29T21:41:49.416Z,87.92
2022-07-29T21:44:16.395Z,87.36
2022-07-29T21:46:43.338Z,87.62
2022-07-29T21:49:10.381Z,87.09
2022-07-29T21:51:37.504Z,87.00
2022-07-29T21:54:04.614Z,87.27
2022-07-29T21:56:31.649Z,87.43
2022-07-29T21:58:58.620Z,86.92
2022-07-29T22:01:25.711Z,86.94
2022-07-29T22:03:52.831Z,87.13
2022-07-29T22:06:20.498Z,87.46
2022-07-29T22:08:48.077Z,86.69
2022-07-29T22:11:15.299Z,87.09
2022-07-29T22:13:42.301Z,87.44
2022-07-29T22:16:15.061Z,87.28
2022-07-29T22:18:45.203Z,87.28
2022-07-29T22:21:12.655Z,86.97
2022-07-29T22:23:39.602Z,87.07
2022-07-29T22:26:07.263Z,86.49
2022-07-29T22:28:34.265Z,86.68
2022-07-29T22:31:01.396Z,86.60
2022-07-29T22:33:29.087Z,87.58
2022-07-29T22:35:56.075Z,87.52
2022-07-29T22:38:23.122Z,88.54
2022-07-29T22:40:51.357Z,88.20
2022-07-29T22:43:18.669Z,88.47
2022-07-29T22:45:45.888Z,88.99
2022-07-29T22:48:13.001Z,89.03
2022-07-29T22:50:41.866Z,88.93
2022-07-29T22:53:08.786Z,89.41
2022-07-29T22:55:35.853Z,89.03
2022-07-29T22:58:02.898Z,90.24
2022-07-29T23:00:29.965Z,90.14
2022-07-29T23:02:56.931Z,89.44
2022-07-29T23:05:23.963Z,89.19
2022-07-29T23:07:50.968Z,89.53
2022-07-29T23:10:18.057Z,90.29
2022-07-29T23:12:45.067Z,89.45
2022-07-29T23:15:12.418Z,89.25
2022-07-29T23:17:39.530Z,90.24
2022-07-29T23:20:09.740Z,90.10
2022-07-29T23:22:37.582Z,89.87
2022-07-29T23:25:06.335Z,89.61
2022-07-29T23:27:33.652Z,89.37
2022-07-29T23:30:00.695Z,89.82
2022-07-29T23:32:27.698Z,89.92
2022-07-29T23:34:54.742Z,89.18
2022-07-29T23:37:22.139Z,88.62
2022-07-29T23:39:49.052Z,89.01
2022-07-29T23:42:16.112Z,88.60
2022-07-29T23:44:43.345Z,88.11
2022-07-29T23:47:10.503Z,87.57
2022-07-29T23:49:37.541Z,87.53
2022-07-29T23:52:04.760Z,88.30
2022-07-29T23:54:31.847Z,88.99
2022-07-29T23:56:59.322Z,89.35
2022-07-29T23:59:26.509Z,88.71
